sensor_id;sensor_type;location;lat;lon;timestamp;P1;durP1;ratioP1;P2;durP2;ratioP2
48203;SDS011;33994;50.998;5.864;2023-08-08T00:00:36;3.55;;;2.40;;
48203;SDS011;33994;50.998;5.864;2023-08-08T00:03:41;10.32;;;2.70;;
48203;SDS011;33994;50.998;5.864;2023-08-08T00:06:46;6.78;;;2.22;;
48203;SDS011;33994;50.998;5.864;2023-08-08T00:09:49;4.63;;;2.35;;
48203;SDS011;33994;50.998;5.864;2023-08-08T00:12:53;8.73;;;2.72;;
48203;SDS011;33994;50.998;5.864;2023-08-08T00:15:57;4.47;;;2.10;;
48203;SDS011;33994;50.998;5.864;2023-08-08T00:19:00;4.40;;;2.10;;
48203;SDS011;33994;50.998;5.864;2023-08-08T00:22:04;6.28;;;2.20;;
48203;SDS011;33994;50.998;5.864;2023-08-08T00:25:08;7.10;;;2.70;;
48203;SDS011;33994;50.998;5.864;2023-08-08T00:28:13;7.93;;;2.50;;
48203;SDS011;33994;50.998;5.864;2023-08-08T00:31:18;3.78;;;2.25;;
48203;SDS011;33994;50.998;5.864;2023-08-08T00:34:21;5.50;;;2.90;;
48203;SDS011;33994;50.998;5.864;2023-08-08T00:37:25;6.18;;;2.55;;
48203;SDS011;33994;50.998;5.864;2023-08-08T00:40:29;5.47;;;2.38;;
48203;SDS011;33994;50.998;5.864;2023-08-08T00:43:35;6.47;;;3.20;;
48203;SDS011;33994;50.998;5.864;2023-08-08T00:46:40;6.80;;;2.50;;
48203;SDS011;33994;50.998;5.864;2023-08-08T00:49:43;3.22;;;2.20;;
48203;SDS011;33994;50.998;5.864;2023-08-08T00:52:49;6.70;;;2.70;;
48203;SDS011;33994;50.998;5.864;2023-08-08T00:55:53;4.18;;;2.10;;
48203;SDS011;33994;50.998;5.864;2023-08-08T00:58:58;5.30;;;2.38;;
48203;SDS011;33994;50.998;5.864;2023-08-08T01:02:01;4.35;;;2.30;;
48203;SDS011;33994;50.998;5.864;2023-08-08T01:05:05;9.75;;;2.33;;
48203;SDS011;33994;50.998;5.864;2023-08-08T01:08:10;7.97;;;2.78;;
48203;SDS011;33994;50.998;5.864;2023-08-08T01:11:17;4.57;;;2.10;;
48203;SDS011;33994;50.998;5.864;2023-08-08T01:14:23;5.25;;;2.47;;
48203;SDS011;33994;50.998;5.864;2023-08-08T01:17:30;4.95;;;2.00;;
48203;SDS011;33994;50.998;5.864;2023-08-08T01:20:34;3.85;;;2.33;;
48203;SDS011;33994;50.998;5.864;2023-08-08T01:23:41;6.10;;;1.90;;
48203;SDS011;33994;50.998;5.864;2023-08-08T01:26:51;4.05;;;1.92;;
48203;SDS011;33994;50.998;5.864;2023-08-08T01:29:55;8.90;;;2.30;;
48203;SDS011;33994;50.998;5.864;2023-08-08T01:33:03;8.65;;;2.10;;
48203;SDS011;33994;50.998;5.864;2023-08-08T01:36:10;4.47;;;2.28;;
48203;SDS011;33994;50.998;5.864;2023-08-08T01:39:24;6.53;;;2.47;;
48203;SDS011;33994;50.998;5.864;2023-08-08T01:42:32;4.32;;;1.80;;
48203;SDS011;33994;50.998;5.864;2023-08-08T01:45:40;4.78;;;1.73;;
48203;SDS011;33994;50.998;5.864;2023-08-08T01:48:45;3.70;;;2.03;;
48203;SDS011;33994;50.998;5.864;2023-08-08T01:51:50;5.00;;;2.00;;
48203;SDS011;33994;50.998;5.864;2023-08-08T01:54:53;8.13;;;2.35;;
48203;SDS011;33994;50.998;5.864;2023-08-08T01:57:58;7.88;;;2.20;;
48203;SDS011;33994;50.998;5.864;2023-08-08T02:01:01;7.53;;;2.35;;
48203;SDS011;33994;50.998;5.864;2023-08-08T02:04:05;5.68;;;2.17;;
48203;SDS011;33994;50.998;5.864;2023-08-08T02:07:10;8.07;;;3.35;;
48203;SDS011;33994;50.998;5.864;2023-08-08T02:10:13;5.43;;;2.17;;
48203;SDS011;33994;50.998;5.864;2023-08-08T02:13:20;5.20;;;2.25;;
48203;SDS011;33994;50.998;5.864;2023-08-08T02:16:24;6.72;;;2.05;;
48203;SDS011;33994;50.998;5.864;2023-08-08T02:19:29;9.85;;;2.70;;
48203;SDS011;33994;50.998;5.864;2023-08-08T02:22:33;6.05;;;2.50;;
48203;SDS011;33994;50.998;5.864;2023-08-08T02:25:36;9.45;;;2.60;;
48203;SDS011;33994;50.998;5.864;2023-08-08T02:28:41;9.75;;;3.15;;
48203;SDS011;33994;50.998;5.864;2023-08-08T02:31:46;7.93;;;2.80;;
48203;SDS011;33994;50.998;5.864;2023-08-08T02:34:51;7.72;;;2.65;;
48203;SDS011;33994;50.998;5.864;2023-08-08T02:37:55;6.03;;;2.53;;
48203;SDS011;33994;50.998;5.864;2023-08-08T02:41:00;5.53;;;2.45;;
48203;SDS011;33994;50.998;5.864;2023-08-08T02:44:06;14.15;;;3.00;;
48203;SDS011;33994;50.998;5.864;2023-08-08T02:47:13;12.40;;;2.78;;
48203;SDS011;33994;50.998;5.864;2023-08-08T02:50:17;15.07;;;3.05;;
48203;SDS011;33994;50.998;5.864;2023-08-08T02:53:23;14.23;;;3.03;;
48203;SDS011;33994;50.998;5.864;2023-08-08T02:56:26;8.23;;;3.10;;
48203;SDS011;33994;50.998;5.864;2023-08-08T02:59:32;7.00;;;2.60;;
48203;SDS011;33994;50.998;5.864;2023-08-08T03:02:37;8.32;;;3.03;;
48203;SDS011;33994;50.998;5.864;2023-08-08T03:05:41;8.63;;;3.20;;
48203;SDS011;33994;50.998;5.864;2023-08-08T03:08:46;10.05;;;3.42;;
48203;SDS011;33994;50.998;5.864;2023-08-08T03:11:51;6.90;;;3.00;;
48203;SDS011;33994;50.998;5.864;2023-08-08T03:14:57;12.75;;;3.67;;
48203;SDS011;33994;50.998;5.864;2023-08-08T03:18:01;12.93;;;4.65;;
48203;SDS011;33994;50.998;5.864;2023-08-08T03:21:05;9.35;;;3.22;;
48203;SDS011;33994;50.998;5.864;2023-08-08T03:24:08;15.05;;;4.05;;
48203;SDS011;33994;50.998;5.864;2023-08-08T03:27:15;11.63;;;3.42;;
48203;SDS011;33994;50.998;5.864;2023-08-08T03:30:20;7.40;;;2.97;;
48203;SDS011;33994;50.998;5.864;2023-08-08T03:33:24;8.90;;;3.10;;
48203;SDS011;33994;50.998;5.864;2023-08-08T03:36:27;8.02;;;3.15;;
48203;SDS011;33994;50.998;5.864;2023-08-08T03:39:30;5.57;;;3.25;;
48203;SDS011;33994;50.998;5.864;2023-08-08T03:42:33;12.52;;;3.55;;
48203;SDS011;33994;50.998;5.864;2023-08-08T03:45:48;12.05;;;3.47;;
48203;SDS011;33994;50.998;5.864;2023-08-08T03:48:53;14.20;;;3.65;;
48203;SDS011;33994;50.998;5.864;2023-08-08T03:51:58;17.67;;;5.43;;
48203;SDS011;33994;50.998;5.864;2023-08-08T03:55:02;7.75;;;3.50;;
48203;SDS011;33994;50.998;5.864;2023-08-08T03:58:06;9.32;;;3.33;;
48203;SDS011;33994;50.998;5.864;2023-08-08T04:01:11;7.28;;;3.30;;
48203;SDS011;33994;50.998;5.864;2023-08-08T04:04:16;9.85;;;3.10;;
48203;SDS011;33994;50.998;5.864;2023-08-08T04:07:19;11.93;;;3.63;;
48203;SDS011;33994;50.998;5.864;2023-08-08T04:10:23;12.00;;;4.03;;
48203;SDS011;33994;50.998;5.864;2023-08-08T04:13:27;11.25;;;3.88;;
48203;SDS011;33994;50.998;5.864;2023-08-08T04:16:32;12.02;;;4.05;;
48203;SDS011;33994;50.998;5.864;2023-08-08T04:19:35;9.15;;;2.88;;
48203;SDS011;33994;50.998;5.864;2023-08-08T04:22:39;11.20;;;4.88;;
48203;SDS011;33994;50.998;5.864;2023-08-08T04:25:44;12.88;;;3.40;;
48203;SDS011;33994;50.998;5.864;2023-08-08T04:28:48;17.23;;;4.60;;
48203;SDS011;33994;50.998;5.864;2023-08-08T04:31:52;18.95;;;4.82;;
48203;SDS011;33994;50.998;5.864;2023-08-08T04:34:56;12.77;;;4.00;;
48203;SDS011;33994;50.998;5.864;2023-08-08T04:38:00;15.50;;;4.63;;
48203;SDS011;33994;50.998;5.864;2023-08-08T04:41:03;15.60;;;4.07;;
48203;SDS011;33994;50.998;5.864;2023-08-08T04:44:07;11.30;;;5.22;;
48203;SDS011;33994;50.998;5.864;2023-08-08T04:47:15;13.10;;;4.10;;
48203;SDS011;33994;50.998;5.864;2023-08-08T04:50:18;13.85;;;3.80;;
48203;SDS011;33994;50.998;5.864;2023-08-08T04:53:22;14.38;;;3.88;;
48203;SDS011;33994;50.998;5.864;2023-08-08T04:56:26;17.58;;;5.03;;
48203;SDS011;33994;50.998;5.864;2023-08-08T04:59:32;16.15;;;4.10;;
48203;SDS011;33994;50.998;5.864;2023-08-08T05:02:37;10.52;;;3.20;;
48203;SDS011;33994;50.998;5.864;2023-08-08T05:05:40;15.48;;;5.38;;
48203;SDS011;33994;50.998;5.864;2023-08-08T05:08:44;12.38;;;3.78;;
48203;SDS011;33994;50.998;5.864;2023-08-08T05:11:49;10.00;;;3.17;;
48203;SDS011;33994;50.998;5.864;2023-08-08T05:14:52;10.48;;;3.30;;
48203;SDS011;33994;50.998;5.864;2023-08-08T05:17:57;9.40;;;3.75;;
48203;SDS011;33994;50.998;5.864;2023-08-08T05:21:00;15.80;;;4.10;;
48203;SDS011;33994;50.998;5.864;2023-08-08T05:24:06;13.43;;;4.05;;
48203;SDS011;33994;50.998;5.864;2023-08-08T05:27:09;14.27;;;3.70;;
48203;SDS011;33994;50.998;5.864;2023-08-08T05:30:13;10.30;;;3.10;;
48203;SDS011;33994;50.998;5.864;2023-08-08T05:33:19;14.93;;;4.20;;
48203;SDS011;33994;50.998;5.864;2023-08-08T05:36:22;13.23;;;3.75;;
48203;SDS011;33994;50.998;5.864;2023-08-08T05:39:27;11.20;;;4.13;;
48203;SDS011;33994;50.998;5.864;2023-08-08T05:42:33;9.60;;;3.47;;
48203;SDS011;33994;50.998;5.864;2023-08-08T05:45:36;16.73;;;3.92;;
48203;SDS011;33994;50.998;5.864;2023-08-08T05:48:43;10.50;;;3.60;;
48203;SDS011;33994;50.998;5.864;2023-08-08T05:51:46;15.13;;;5.07;;
48203;SDS011;33994;50.998;5.864;2023-08-08T05:54:49;15.07;;;4.03;;
48203;SDS011;33994;50.998;5.864;2023-08-08T05:57:53;11.35;;;3.78;;
48203;SDS011;33994;50.998;5.864;2023-08-08T06:00:58;19.02;;;5.43;;
48203;SDS011;33994;50.998;5.864;2023-08-08T06:04:03;15.32;;;4.35;;
48203;SDS011;33994;50.998;5.864;2023-08-08T06:07:08;17.70;;;4.15;;
48203;SDS011;33994;50.998;5.864;2023-08-08T06:10:11;13.25;;;4.05;;
48203;SDS011;33994;50.998;5.864;2023-08-08T06:13:14;18.10;;;4.65;;
48203;SDS011;33994;50.998;5.864;2023-08-08T06:16:17;10.20;;;4.10;;
48203;SDS011;33994;50.998;5.864;2023-08-08T06:19:26;15.88;;;4.65;;
48203;SDS011;33994;50.998;5.864;2023-08-08T06:22:29;15.75;;;4.13;;
48203;SDS011;33994;50.998;5.864;2023-08-08T06:25:33;9.25;;;3.53;;
48203;SDS011;33994;50.998;5.864;2023-08-08T06:28:38;9.13;;;3.95;;
48203;SDS011;33994;50.998;5.864;2023-08-08T06:31:41;10.40;;;4.50;;
48203;SDS011;33994;50.998;5.864;2023-08-08T06:34:47;17.58;;;4.97;;
48203;SDS011;33994;50.998;5.864;2023-08-08T06:37:51;12.50;;;4.45;;
48203;SDS011;33994;50.998;5.864;2023-08-08T06:40:55;17.90;;;4.40;;
48203;SDS011;33994;50.998;5.864;2023-08-08T06:43:58;12.13;;;3.95;;
48203;SDS011;33994;50.998;5.864;2023-08-08T06:47:03;14.55;;;4.18;;
48203;SDS011;33994;50.998;5.864;2023-08-08T06:50:11;13.55;;;4.35;;
48203;SDS011;33994;50.998;5.864;2023-08-08T06:53:16;11.00;;;4.80;;
48203;SDS011;33994;50.998;5.864;2023-08-08T06:56:20;17.02;;;5.28;;
48203;SDS011;33994;50.998;5.864;2023-08-08T06:59:24;10.95;;;4.20;;
48203;SDS011;33994;50.998;5.864;2023-08-08T07:02:28;12.55;;;4.13;;
48203;SDS011;33994;50.998;5.864;2023-08-08T07:05:34;20.42;;;5.32;;
48203;SDS011;33994;50.998;5.864;2023-08-08T07:08:37;16.55;;;5.47;;
48203;SDS011;33994;50.998;5.864;2023-08-08T07:11:42;11.63;;;4.60;;
48203;SDS011;33994;50.998;5.864;2023-08-08T07:14:45;13.65;;;4.65;;
48203;SDS011;33994;50.998;5.864;2023-08-08T07:17:49;15.63;;;5.43;;
48203;SDS011;33994;50.998;5.864;2023-08-08T07:20:54;12.15;;;4.72;;
48203;SDS011;33994;50.998;5.864;2023-08-08T07:23:58;11.48;;;4.97;;
48203;SDS011;33994;50.998;5.864;2023-08-08T07:27:02;11.82;;;4.25;;
48203;SDS011;33994;50.998;5.864;2023-08-08T07:30:07;13.40;;;5.20;;
48203;SDS011;33994;50.998;5.864;2023-08-08T07:33:11;15.13;;;5.32;;
48203;SDS011;33994;50.998;5.864;2023-08-08T07:36:20;16.58;;;5.40;;
48203;SDS011;33994;50.998;5.864;2023-08-08T07:39:23;14.35;;;4.63;;
48203;SDS011;33994;50.998;5.864;2023-08-08T07:42:28;14.25;;;5.40;;
48203;SDS011;33994;50.998;5.864;2023-08-08T07:45:32;12.57;;;4.47;;
48203;SDS011;33994;50.998;5.864;2023-08-08T07:48:36;14.88;;;5.40;;
48203;SDS011;33994;50.998;5.864;2023-08-08T07:51:41;12.50;;;4.40;;
48203;SDS011;33994;50.998;5.864;2023-08-08T07:54:45;14.85;;;5.10;;
48203;SDS011;33994;50.998;5.864;2023-08-08T07:57:49;10.43;;;5.15;;
48203;SDS011;33994;50.998;5.864;2023-08-08T08:00:54;13.15;;;4.53;;
48203;SDS011;33994;50.998;5.864;2023-08-08T08:04:01;15.98;;;5.18;;
48203;SDS011;33994;50.998;5.864;2023-08-08T08:07:09;14.98;;;4.97;;
48203;SDS011;33994;50.998;5.864;2023-08-08T08:10:13;14.13;;;5.37;;
48203;SDS011;33994;50.998;5.864;2023-08-08T08:13:16;11.98;;;4.30;;
48203;SDS011;33994;50.998;5.864;2023-08-08T08:16:20;11.32;;;4.57;;
48203;SDS011;33994;50.998;5.864;2023-08-08T08:19:23;11.27;;;4.68;;
48203;SDS011;33994;50.998;5.864;2023-08-08T08:22:31;8.75;;;4.72;;
48203;SDS011;33994;50.998;5.864;2023-08-08T08:25:35;10.15;;;4.95;;
48203;SDS011;33994;50.998;5.864;2023-08-08T08:28:40;12.63;;;4.80;;
48203;SDS011;33994;50.998;5.864;2023-08-08T08:31:44;14.73;;;4.97;;
48203;SDS011;33994;50.998;5.864;2023-08-08T08:34:48;12.45;;;5.43;;
48203;SDS011;33994;50.998;5.864;2023-08-08T08:37:54;10.57;;;5.18;;
48203;SDS011;33994;50.998;5.864;2023-08-08T08:40:57;10.52;;;5.47;;
48203;SDS011;33994;50.998;5.864;2023-08-08T08:44:03;16.15;;;5.57;;
48203;SDS011;33994;50.998;5.864;2023-08-08T08:47:08;11.82;;;5.75;;
48203;SDS011;33994;50.998;5.864;2023-08-08T08:50:15;11.43;;;5.28;;
48203;SDS011;33994;50.998;5.864;2023-08-08T08:53:22;10.73;;;5.35;;
48203;SDS011;33994;50.998;5.864;2023-08-08T08:56:25;9.63;;;4.40;;
48203;SDS011;33994;50.998;5.864;2023-08-08T08:59:32;17.45;;;4.65;;
48203;SDS011;33994;50.998;5.864;2023-08-08T09:02:38;10.20;;;4.72;;
48203;SDS011;33994;50.998;5.864;2023-08-08T09:05:43;12.48;;;3.90;;
48203;SDS011;33994;50.998;5.864;2023-08-08T09:08:48;10.15;;;4.05;;
48203;SDS011;33994;50.998;5.864;2023-08-08T09:11:52;10.55;;;3.55;;
48203;SDS011;33994;50.998;5.864;2023-08-08T09:14:58;11.10;;;3.92;;
48203;SDS011;33994;50.998;5.864;2023-08-08T09:18:01;11.45;;;4.00;;
48203;SDS011;33994;50.998;5.864;2023-08-08T09:21:06;11.50;;;3.33;;
48203;SDS011;33994;50.998;5.864;2023-08-08T09:24:12;9.88;;;3.17;;
48203;SDS011;33994;50.998;5.864;2023-08-08T09:27:16;7.63;;;3.67;;
48203;SDS011;33994;50.998;5.864;2023-08-08T09:30:19;9.52;;;3.33;;
48203;SDS011;33994;50.998;5.864;2023-08-08T09:33:23;9.32;;;3.58;;
48203;SDS011;33994;50.998;5.864;2023-08-08T09:36:31;7.60;;;3.40;;
48203;SDS011;33994;50.998;5.864;2023-08-08T09:39:37;10.63;;;3.05;;
48203;SDS011;33994;50.998;5.864;2023-08-08T09:42:42;12.98;;;3.40;;
48203;SDS011;33994;50.998;5.864;2023-08-08T09:45:47;11.30;;;3.55;;
48203;SDS011;33994;50.998;5.864;2023-08-08T09:48:52;8.38;;;2.63;;
48203;SDS011;33994;50.998;5.864;2023-08-08T09:51:56;8.38;;;2.72;;
48203;SDS011;33994;50.998;5.864;2023-08-08T09:55:07;8.98;;;2.97;;
48203;SDS011;33994;50.998;5.864;2023-08-08T09:58:10;9.60;;;3.20;;
48203;SDS011;33994;50.998;5.864;2023-08-08T10:01:17;11.57;;;3.33;;
48203;SDS011;33994;50.998;5.864;2023-08-08T10:04:21;12.65;;;3.33;;
48203;SDS011;33994;50.998;5.864;2023-08-08T10:07:26;11.57;;;3.10;;
48203;SDS011;33994;50.998;5.864;2023-08-08T10:10:31;4.00;;;2.33;;
48203;SDS011;33994;50.998;5.864;2023-08-08T10:13:35;8.20;;;2.50;;
48203;SDS011;33994;50.998;5.864;2023-08-08T10:16:41;7.03;;;3.58;;
48203;SDS011;33994;50.998;5.864;2023-08-08T10:19:51;9.27;;;2.97;;
48203;SDS011;33994;50.998;5.864;2023-08-08T10:22:56;6.32;;;2.72;;
48203;SDS011;33994;50.998;5.864;2023-08-08T10:26:01;8.70;;;2.65;;
48203;SDS011;33994;50.998;5.864;2023-08-08T10:29:05;9.65;;;2.88;;
48203;SDS011;33994;50.998;5.864;2023-08-08T10:39:58;6.38;;;2.25;;
48203;SDS011;33994;50.998;5.864;2023-08-08T10:43:10;6.28;;;2.38;;
48203;SDS011;33994;50.998;5.864;2023-08-08T10:46:22;9.27;;;3.10;;
48203;SDS011;33994;50.998;5.864;2023-08-08T10:49:29;6.72;;;2.60;;
48203;SDS011;33994;50.998;5.864;2023-08-08T10:52:33;10.57;;;2.88;;
48203;SDS011;33994;50.998;5.864;2023-08-08T10:55:42;8.27;;;2.30;;
48203;SDS011;33994;50.998;5.864;2023-08-08T10:58:48;9.90;;;2.58;;
48203;SDS011;33994;50.998;5.864;2023-08-08T11:01:53;8.05;;;2.38;;
48203;SDS011;33994;50.998;5.864;2023-08-08T11:04:56;5.38;;;2.40;;
48203;SDS011;33994;50.998;5.864;2023-08-08T11:08:06;8.23;;;2.15;;
48203;SDS011;33994;50.998;5.864;2023-08-08T11:11:09;7.38;;;2.33;;
48203;SDS011;33994;50.998;5.864;2023-08-08T11:14:18;7.65;;;2.40;;
48203;SDS011;33994;50.998;5.864;2023-08-08T11:17:28;14.63;;;4.05;;
48203;SDS011;33994;50.998;5.864;2023-08-08T11:20:32;7.43;;;2.47;;
48203;SDS011;33994;50.998;5.864;2023-08-08T11:23:36;7.55;;;2.30;;
48203;SDS011;33994;50.998;5.864;2023-08-08T11:26:40;7.13;;;2.63;;
48203;SDS011;33994;50.998;5.864;2023-08-08T11:29:50;6.22;;;1.83;;
48203;SDS011;33994;50.998;5.864;2023-08-08T11:32:56;9.02;;;2.08;;
48203;SDS011;33994;50.998;5.864;2023-08-08T11:35:59;3.30;;;1.80;;
48203;SDS011;33994;50.998;5.864;2023-08-08T11:39:02;6.90;;;2.58;;
48203;SDS011;33994;50.998;5.864;2023-08-08T11:42:07;6.97;;;2.13;;
48203;SDS011;33994;50.998;5.864;2023-08-08T11:45:12;5.57;;;2.00;;
48203;SDS011;33994;50.998;5.864;2023-08-08T11:48:16;7.80;;;2.00;;
48203;SDS011;33994;50.998;5.864;2023-08-08T11:51:24;6.75;;;2.15;;
48203;SDS011;33994;50.998;5.864;2023-08-08T11:54:27;10.15;;;2.47;;
48203;SDS011;33994;50.998;5.864;2023-08-08T11:57:31;7.45;;;2.58;;
48203;SDS011;33994;50.998;5.864;2023-08-08T12:00:36;9.93;;;2.13;;
48203;SDS011;33994;50.998;5.864;2023-08-08T12:03:40;6.55;;;2.40;;
48203;SDS011;33994;50.998;5.864;2023-08-08T12:06:45;4.78;;;1.70;;
48203;SDS011;33994;50.998;5.864;2023-08-08T12:09:48;8.90;;;2.63;;
48203;SDS011;33994;50.998;5.864;2023-08-08T12:12:52;6.95;;;2.22;;
48203;SDS011;33994;50.998;5.864;2023-08-08T12:15:59;8.00;;;1.75;;
48203;SDS011;33994;50.998;5.864;2023-08-08T12:19:06;12.98;;;2.10;;
48203;SDS011;33994;50.998;5.864;2023-08-08T12:22:11;8.10;;;2.00;;
48203;SDS011;33994;50.998;5.864;2023-08-08T12:25:14;6.05;;;2.20;;
48203;SDS011;33994;50.998;5.864;2023-08-08T12:28:18;8.00;;;2.00;;
48203;SDS011;33994;50.998;5.864;2023-08-08T12:31:23;5.13;;;1.92;;
48203;SDS011;33994;50.998;5.864;2023-08-08T12:34:27;7.05;;;2.22;;
48203;SDS011;33994;50.998;5.864;2023-08-08T12:37:31;9.25;;;2.60;;
48203;SDS011;33994;50.998;5.864;2023-08-08T12:40:36;6.80;;;2.28;;
48203;SDS011;33994;50.998;5.864;2023-08-08T12:43:41;5.65;;;2.65;;
48203;SDS011;33994;50.998;5.864;2023-08-08T12:46:47;7.50;;;2.30;;
48203;SDS011;33994;50.998;5.864;2023-08-08T12:49:52;4.68;;;2.42;;
48203;SDS011;33994;50.998;5.864;2023-08-08T12:52:56;11.50;;;2.80;;
48203;SDS011;33994;50.998;5.864;2023-08-08T12:56:00;6.72;;;2.92;;
48203;SDS011;33994;50.998;5.864;2023-08-08T12:59:05;10.30;;;2.67;;
48203;SDS011;33994;50.998;5.864;2023-08-08T13:02:11;7.90;;;2.40;;
48203;SDS011;33994;50.998;5.864;2023-08-08T13:05:18;7.53;;;2.60;;
48203;SDS011;33994;50.998;5.864;2023-08-08T13:08:23;10.93;;;2.65;;
48203;SDS011;33994;50.998;5.864;2023-08-08T13:11:27;5.25;;;2.20;;
48203;SDS011;33994;50.998;5.864;2023-08-08T13:14:31;7.25;;;2.25;;
48203;SDS011;33994;50.998;5.864;2023-08-08T13:17:36;7.97;;;2.75;;
48203;SDS011;33994;50.998;5.864;2023-08-08T13:20:39;7.63;;;2.60;;
48203;SDS011;33994;50.998;5.864;2023-08-08T13:23:43;8.13;;;2.42;;
48203;SDS011;33994;50.998;5.864;2023-08-08T13:26:47;7.88;;;2.33;;
48203;SDS011;33994;50.998;5.864;2023-08-08T13:29:50;6.65;;;2.10;;
48203;SDS011;33994;50.998;5.864;2023-08-08T13:32:56;8.02;;;2.50;;
48203;SDS011;33994;50.998;5.864;2023-08-08T13:35:58;7.63;;;2.17;;
48203;SDS011;33994;50.998;5.864;2023-08-08T13:39:02;5.65;;;1.80;;
48203;SDS011;33994;50.998;5.864;2023-08-08T13:42:06;9.00;;;2.33;;
48203;SDS011;33994;50.998;5.864;2023-08-08T13:45:11;8.05;;;2.00;;
48203;SDS011;33994;50.998;5.864;2023-08-08T13:48:17;6.72;;;2.25;;
48203;SDS011;33994;50.998;5.864;2023-08-08T13:51:20;4.47;;;1.88;;
48203;SDS011;33994;50.998;5.864;2023-08-08T13:54:24;8.73;;;2.08;;
48203;SDS011;33994;50.998;5.864;2023-08-08T13:57:28;8.25;;;2.00;;
48203;SDS011;33994;50.998;5.864;2023-08-08T14:00:33;9.82;;;2.00;;
48203;SDS011;33994;50.998;5.864;2023-08-08T14:03:39;6.90;;;2.13;;
48203;SDS011;33994;50.998;5.864;2023-08-08T14:06:42;4.75;;;2.03;;
48203;SDS011;33994;50.998;5.864;2023-08-08T14:09:46;7.13;;;1.65;;
48203;SDS011;33994;50.998;5.864;2023-08-08T14:12:50;4.90;;;1.60;;
48203;SDS011;33994;50.998;5.864;2023-08-08T14:15:53;5.78;;;2.00;;
48203;SDS011;33994;50.998;5.864;2023-08-08T14:18:58;8.75;;;1.50;;
48203;SDS011;33994;50.998;5.864;2023-08-08T14:22:10;4.63;;;1.73;;
48203;SDS011;33994;50.998;5.864;2023-08-08T14:25:13;6.53;;;1.45;;
48203;SDS011;33994;50.998;5.864;2023-08-08T14:28:17;5.78;;;1.30;;
48203;SDS011;33994;50.998;5.864;2023-08-08T14:31:22;3.72;;;1.27;;
48203;SDS011;33994;50.998;5.864;2023-08-08T14:34:36;4.25;;;1.50;;
48203;SDS011;33994;50.998;5.864;2023-08-08T14:37:40;6.22;;;2.60;;
48203;SDS011;33994;50.998;5.864;2023-08-08T14:40:44;3.28;;;1.70;;
48203;SDS011;33994;50.998;5.864;2023-08-08T14:43:47;4.15;;;1.38;;
48203;SDS011;33994;50.998;5.864;2023-08-08T14:46:52;4.40;;;2.13;;
48203;SDS011;33994;50.998;5.864;2023-08-08T14:49:57;5.43;;;1.80;;
48203;SDS011;33994;50.998;5.864;2023-08-08T14:53:00;4.28;;;1.63;;
48203;SDS011;33994;50.998;5.864;2023-08-08T14:56:03;4.20;;;1.40;;
48203;SDS011;33994;50.998;5.864;2023-08-08T14:59:07;6.53;;;1.45;;
48203;SDS011;33994;50.998;5.864;2023-08-08T15:02:10;4.10;;;1.65;;
48203;SDS011;33994;50.998;5.864;2023-08-08T15:05:17;4.38;;;1.30;;
48203;SDS011;33994;50.998;5.864;2023-08-08T15:08:22;6.43;;;1.80;;
48203;SDS011;33994;50.998;5.864;2023-08-08T15:11:27;3.97;;;1.70;;
48203;SDS011;33994;50.998;5.864;2023-08-08T15:14:32;4.07;;;1.83;;
48203;SDS011;33994;50.998;5.864;2023-08-08T15:17:35;3.25;;;1.20;;
48203;SDS011;33994;50.998;5.864;2023-08-08T15:20:40;5.20;;;1.45;;
48203;SDS011;33994;50.998;5.864;2023-08-08T15:23:44;5.35;;;1.50;;
48203;SDS011;33994;50.998;5.864;2023-08-08T15:26:48;6.47;;;1.48;;
48203;SDS011;33994;50.998;5.864;2023-08-08T15:29:53;2.42;;;1.35;;
48203;SDS011;33994;50.998;5.864;2023-08-08T15:32:58;3.75;;;1.52;;
48203;SDS011;33994;50.998;5.864;2023-08-08T15:36:05;4.07;;;1.30;;
48203;SDS011;33994;50.998;5.864;2023-08-08T15:39:09;6.95;;;1.48;;
48203;SDS011;33994;50.998;5.864;2023-08-08T15:42:14;3.05;;;1.55;;
48203;SDS011;33994;50.998;5.864;2023-08-08T15:45:18;3.15;;;1.38;;
48203;SDS011;33994;50.998;5.864;2023-08-08T15:48:21;4.78;;;1.55;;
48203;SDS011;33994;50.998;5.864;2023-08-08T15:51:26;3.30;;;1.50;;
48203;SDS011;33994;50.998;5.864;2023-08-08T15:54:31;2.95;;;1.40;;
48203;SDS011;33994;50.998;5.864;2023-08-08T15:57:34;2.50;;;1.45;;
48203;SDS011;33994;50.998;5.864;2023-08-08T16:00:39;4.50;;;1.38;;
48203;SDS011;33994;50.998;5.864;2023-08-08T16:03:44;3.45;;;1.40;;
48203;SDS011;33994;50.998;5.864;2023-08-08T16:06:48;4.20;;;1.17;;
48203;SDS011;33994;50.998;5.864;2023-08-08T16:09:51;2.88;;;1.33;;
48203;SDS011;33994;50.998;5.864;2023-08-08T16:12:55;6.18;;;1.92;;
48203;SDS011;33994;50.998;5.864;2023-08-08T16:15:58;1.80;;;1.17;;
48203;SDS011;33994;50.998;5.864;2023-08-08T16:19:01;4.15;;;1.20;;
48203;SDS011;33994;50.998;5.864;2023-08-08T16:22:06;4.03;;;1.33;;
48203;SDS011;33994;50.998;5.864;2023-08-08T16:25:12;4.25;;;1.30;;
48203;SDS011;33994;50.998;5.864;2023-08-08T16:28:16;3.80;;;1.30;;
48203;SDS011;33994;50.998;5.864;2023-08-08T16:31:20;3.55;;;1.60;;
48203;SDS011;33994;50.998;5.864;2023-08-08T16:34:23;4.97;;;1.52;;
48203;SDS011;33994;50.998;5.864;2023-08-08T16:37:28;2.22;;;1.60;;
48203;SDS011;33994;50.998;5.864;2023-08-08T16:40:31;6.63;;;1.92;;
48203;SDS011;33994;50.998;5.864;2023-08-08T16:43:35;8.88;;;2.22;;
48203;SDS011;33994;50.998;5.864;2023-08-08T16:46:41;5.43;;;1.83;;
48203;SDS011;33994;50.998;5.864;2023-08-08T16:49:44;2.80;;;1.30;;
48203;SDS011;33994;50.998;5.864;2023-08-08T16:52:51;4.60;;;1.45;;
48203;SDS011;33994;50.998;5.864;2023-08-08T16:55:55;5.40;;;1.73;;
48203;SDS011;33994;50.998;5.864;2023-08-08T16:58:58;4.97;;;1.60;;
48203;SDS011;33994;50.998;5.864;2023-08-08T17:02:01;5.07;;;1.27;;
48203;SDS011;33994;50.998;5.864;2023-08-08T17:05:07;1.98;;;1.40;;
48203;SDS011;33994;50.998;5.864;2023-08-08T17:08:13;4.53;;;1.55;;
48203;SDS011;33994;50.998;5.864;2023-08-08T17:11:17;4.45;;;1.48;;
48203;SDS011;33994;50.998;5.864;2023-08-08T17:14:21;2.63;;;1.13;;
48203;SDS011;33994;50.998;5.864;2023-08-08T17:17:25;5.20;;;1.33;;
48203;SDS011;33994;50.998;5.864;2023-08-08T17:20:29;2.63;;;1.60;;
48203;SDS011;33994;50.998;5.864;2023-08-08T17:23:34;3.92;;;1.35;;
48203;SDS011;33994;50.998;5.864;2023-08-08T17:26:38;3.92;;;1.40;;
48203;SDS011;33994;50.998;5.864;2023-08-08T17:29:42;3.45;;;1.52;;
48203;SDS011;33994;50.998;5.864;2023-08-08T17:32:45;6.55;;;1.30;;
48203;SDS011;33994;50.998;5.864;2023-08-08T17:35:49;2.35;;;1.13;;
48203;SDS011;33994;50.998;5.864;2023-08-08T17:38:54;3.13;;;1.00;;
48203;SDS011;33994;50.998;5.864;2023-08-08T17:41:57;3.80;;;1.40;;
48203;SDS011;33994;50.998;5.864;2023-08-08T17:45:01;5.32;;;1.33;;
48203;SDS011;33994;50.998;5.864;2023-08-08T17:48:04;4.93;;;1.70;;
48203;SDS011;33994;50.998;5.864;2023-08-08T17:51:08;3.10;;;1.30;;
48203;SDS011;33994;50.998;5.864;2023-08-08T17:54:17;4.13;;;1.55;;
48203;SDS011;33994;50.998;5.864;2023-08-08T17:57:21;3.38;;;1.42;;
48203;SDS011;33994;50.998;5.864;2023-08-08T18:00:24;3.63;;;1.15;;
48203;SDS011;33994;50.998;5.864;2023-08-08T18:03:27;2.55;;;1.35;;
48203;SDS011;33994;50.998;5.864;2023-08-08T18:06:32;4.72;;;1.55;;
48203;SDS011;33994;50.998;5.864;2023-08-08T18:09:40;4.22;;;1.40;;
48203;SDS011;33994;50.998;5.864;2023-08-08T18:12:46;3.75;;;1.30;;
48203;SDS011;33994;50.998;5.864;2023-08-08T18:15:51;2.78;;;1.33;;
48203;SDS011;33994;50.998;5.864;2023-08-08T18:18:54;3.67;;;1.20;;
48203;SDS011;33994;50.998;5.864;2023-08-08T18:21:57;3.38;;;1.55;;
48203;SDS011;33994;50.998;5.864;2023-08-08T18:25:02;5.95;;;1.88;;
48203;SDS011;33994;50.998;5.864;2023-08-08T18:28:05;7.47;;;1.60;;
48203;SDS011;33994;50.998;5.864;2023-08-08T18:31:09;4.55;;;1.70;;
48203;SDS011;33994;50.998;5.864;2023-08-08T18:34:13;3.28;;;1.75;;